Time;durP1;ratioP1;P1;durP2;ratioP2;P2;SDS_P1;SDS_P2;PMS_P1;PMS_P2;Temp;Humidity;BMP_temperature;BMP_pressure;BME280_temperature;BME280_humidity;BME280_pressure;Samples;Min_cycle;Max_cycle;Signal;HPM_P1;HPM_P2
2023/09/01 00:00:16;;;;;;;8.50;4.03;;;;;;;;;;6291716;22;20023;-84
2023/09/01 00:03:03;;;;;;;7.85;3.70;;;;;;;;;;6314422;22;20054;-84
2023/09/01 00:05:36;;;;;;;9.10;4.45;;;;;;;;;;6291485;22;20374;-85
2023/09/01 00:08:08;;;;;;;6.60;4.32;;;;;;;;;;6296461;22;20038;-84
2023/09/01 00:10:42;;;;;;;10.82;3.72;;;;;;;;;;6298952;22;20023;-86
2023/09/01 00:13:23;;;;;;;8.43;4.22;;;;;;;;;;6296814;22;20045;-85
2023/09/01 00:16:00;;;;;;;11.27;4.90;;;;;;;;;;6300710;22;20030;-85
2023/09/01 00:18:32;;;;;;;7.32;3.88;;;;;;;;;;6299821;22;20031;-85
2023/09/01 00:21:04;;;;;;;9.82;4.38;;;;;;;;;;6295753;22;20072;-85
2023/09/01 00:23:44;;;;;;;12.00;4.50;;;;;;;;;;6323758;22;20024;-85
2023/09/01 00:26:21;;;;;;;8.98;4.80;;;;;;;;;;6303279;22;20038;-84
2023/09/01 00:28:49;;;;;;;8.73;4.47;;;;;;;;;;6295339;22;20035;-85
2023/09/01 00:31:20;;;;;;;7.75;4.75;;;;;;;;;;6296253;22;20023;-85
2023/09/01 00:33:51;;;;;;;12.13;4.60;;;;;;;;;;6322392;22;20023;-87
2023/09/01 00:36:30;;;;;;;9.10;4.75;;;;;;;;;;6324819;22;20033;-87
2023/09/01 00:38:58;;;;;;;7.93;4.57;;;;;;;;;;6296386;22;20035;-87
2023/09/01 00:41:27;;;;;;;8.32;3.70;;;;;;;;;;6304105;22;20034;-87
2023/09/01 00:43:58;;;;;;;6.68;4.20;;;;;;;;;;6324139;22;20019;-87
2023/09/01 00:46:26;;;;;;;8.30;4.70;;;;;;;;;;6322691;22;20029;-87
2023/09/01 00:48:57;;;;;;;11.30;4.47;;;;;;;;;;6323617;22;20071;-86
2023/09/01 00:51:30;;;;;;;10.13;4.60;;;;;;;;;;6322220;22;20075;-88
2023/09/01 00:54:00;;;;;;;5.63;3.83;;;;;;;;;;6299167;22;20031;-88
2023/09/01 00:56:28;;;;;;;6.70;4.50;;;;;;;;;;6322924;22;20023;-87
2023/09/01 00:58:55;;;;;;;7.85;4.55;;;;;;;;;;6325777;22;20106;-88
2023/09/01 01:01:36;;;;;;;10.18;4.22;;;;;;;;;;6290385;22;20025;-88
2023/09/01 01:04:14;;;;;;;8.10;4.65;;;;;;;;;;6325232;22;20085;-87
2023/09/01 01:06:55;;;;;;;8.77;4.45;;;;;;;;;;6318885;22;20023;-88
2023/09/01 01:09:40;;;;;;;8.95;4.35;;;;;;;;;;6297235;22;20023;-87
2023/09/01 01:12:08;;;;;;;5.60;4.13;;;;;;;;;;6319752;22;20023;-87
2023/09/01 01:14:40;;;;;;;11.15;5.10;;;;;;;;;;6317633;22;20072;-87
2023/09/01 01:17:09;;;;;;;9.40;4.82;;;;;;;;;;6290781;22;20023;-87
2023/09/01 01:19:54;;;;;;;9.98;4.60;;;;;;;;;;6287887;22;20271;-87
2023/09/01 01:22:46;;;;;;;7.68;4.28;;;;;;;;;;6288570;22;20073;-87
2023/09/01 01:25:20;;;;;;;11.05;5.57;;;;;;;;;;6316288;22;20050;-88
2023/09/01 01:27:56;;;;;;;8.43;4.68;;;;;;;;;;6318784;22;20123;-87
2023/09/01 01:30:31;;;;;;;9.20;4.63;;;;;;;;;;6291302;22;20294;-86
2023/09/01 01:33:04;;;;;;;8.13;4.18;;;;;;;;;;6316637;22;20027;-86
2023/09/01 01:35:49;;;;;;;11.48;5.05;;;;;;;;;;6317748;22;20023;-84
2023/09/01 01:38:38;;;;;;;11.68;4.75;;;;;;;;;;6281204;22;20018;-85
2023/09/01 01:41:29;;;;;;;8.35;4.43;;;;;;;;;;6292563;22;20023;-85
2023/09/01 01:44:07;;;;;;;6.32;4.90;;;;;;;;;;6295628;22;20023;-85
2023/09/01 01:46:37;;;;;;;8.07;4.60;;;;;;;;;;6299352;22;20033;-87
2023/09/01 01:49:08;;;;;;;11.80;5.00;;;;;;;;;;6324623;22;20038;-87
2023/09/01 01:51:38;;;;;;;6.13;4.85;;;;;;;;;;6290852;22;20024;-87
2023/09/01 01:54:06;;;;;;;12.63;6.47;;;;;;;;;;6315641;22;20180;-87
2023/09/01 01:56:35;;;;;;;10.27;5.05;;;;;;;;;;6315877;22;20027;-87
2023/09/01 01:59:04;;;;;;;8.95;5.20;;;;;;;;;;6315873;22;20023;-87
2023/09/01 02:01:34;;;;;;;10.65;4.70;;;;;;;;;;6300270;22;20011;-87
2023/09/01 02:04:05;;;;;;;9.90;5.20;;;;;;;;;;6287703;22;20023;-87
2023/09/01 02:06:35;;;;;;;11.93;5.00;;;;;;;;;;6288841;22;20023;-87
2023/09/01 02:09:09;;;;;;;9.85;5.22;;;;;;;;;;6289501;22;20016;-86
2023/09/01 02:11:43;;;;;;;9.10;5.53;;;;;;;;;;6288706;22;20011;-87
2023/09/01 02:14:15;;;;;;;7.78;5.25;;;;;;;;;;6289448;22;20062;-87
2023/09/01 02:16:43;;;;;;;12.55;6.47;;;;;;;;;;6289797;22;20039;-87
2023/09/01 02:19:17;;;;;;;13.02;5.93;;;;;;;;;;6314599;22;20027;-87
2023/09/01 02:21:45;;;;;;;10.77;5.55;;;;;;;;;;6288159;22;20038;-87
2023/09/01 02:24:18;;;;;;;13.23;5.63;;;;;;;;;;6290055;22;20027;-87
2023/09/01 02:26:45;;;;;;;17.13;6.28;;;;;;;;;;6293295;22;20049;-87
2023/09/01 02:29:13;;;;;;;8.13;5.53;;;;;;;;;;6295916;22;20027;-88
2023/09/01 02:31:43;;;;;;;11.07;6.15;;;;;;;;;;6296177;22;20023;-86
2023/09/01 02:34:11;;;;;;;8.05;5.43;;;;;;;;;;6322242;22;20038;-87
2023/09/01 02:36:41;;;;;;;7.97;5.75;;;;;;;;;;6295220;22;20115;-88
2023/09/01 02:39:09;;;;;;;8.05;5.18;;;;;;;;;;6321723;22;20034;-87
2023/09/01 02:41:37;;;;;;;12.98;6.38;;;;;;;;;;6321902;22;20019;-87
2023/09/01 02:44:08;;;;;;;7.75;5.53;;;;;;;;;;6296427;22;20075;-88
2023/09/01 02:46:39;;;;;;;9.52;5.32;;;;;;;;;;6295919;22;20024;-87
2023/09/01 02:49:10;;;;;;;12.35;5.93;;;;;;;;;;6323316;22;20065;-86
2023/09/01 02:55:00;;;;;;;14.07;5.75;;;;;;;;;;6323566;22;20408;-86
2023/09/01 02:57:28;;;;;;;10.88;6.20;;;;;;;;;;6295677;22;20019;-87
2023/09/01 02:59:55;;;;;;;7.63;5.13;;;;;;;;;;6294878;22;20130;-87
2023/09/01 03:02:26;;;;;;;10.23;5.68;;;;;;;;;;6295318;22;20019;-87
2023/09/01 03:04:59;;;;;;;15.48;7.03;;;;;;;;;;6324454;22;20023;-87
2023/09/01 03:07:34;;;;;;;12.80;6.43;;;;;;;;;;6299843;22;20023;-88
2023/09/01 03:10:07;;;;;;;12.32;6.10;;;;;;;;;;6295255;22;20070;-87
2023/09/01 03:15:49;;;;;;;8.02;5.68;;;;;;;;;;6321524;22;20033;-87
2023/09/01 03:18:16;;;;;;;10.95;5.35;;;;;;;;;;6324482;22;20023;-85
2023/09/01 03:20:48;;;;;;;17.83;7.30;;;;;;;;;;6296604;22;20023;-85
2023/09/01 03:23:17;;;;;;;9.23;6.15;;;;;;;;;;6324955;22;20027;-85
2023/09/01 03:25:57;;;;;;;9.82;6.38;;;;;;;;;;6299471;22;20059;-85
2023/09/01 03:28:24;;;;;;;8.02;5.63;;;;;;;;;;6323202;22;20393;-85
2023/09/01 03:30:55;;;;;;;7.90;5.45;;;;;;;;;;6322301;22;20038;-85
2023/09/01 03:33:30;;;;;;;7.65;5.03;;;;;;;;;;6297048;22;20035;-85
2023/09/01 03:36:02;;;;;;;12.30;5.35;;;;;;;;;;6295285;22;20336;-85
2023/09/01 03:38:32;;;;;;;10.45;5.80;;;;;;;;;;6320308;22;20411;-85
2023/09/01 03:41:07;;;;;;;10.52;5.50;;;;;;;;;;6293079;22;20023;-86
2023/09/01 03:43:35;;;;;;;12.07;6.47;;;;;;;;;;6293385;22;20281;-84
2023/09/01 03:46:06;;;;;;;10.95;6.25;;;;;;;;;;6293862;22;20046;-86
2023/09/01 03:48:37;;;;;;;14.57;6.75;;;;;;;;;;6293530;22;20102;-85
2023/09/01 03:51:37;;;;;;;10.18;6.07;;;;;;;;;;6298747;22;20023;-85
2023/09/01 03:54:20;;;;;;;10.68;6.45;;;;;;;;;;6254332;22;20011;-85
2023/09/01 03:57:02;;;;;;;12.93;6.70;;;;;;;;;;6297830;22;20026;-85
2023/09/01 03:59:30;;;;;;;11.75;6.90;;;;;;;;;;6294067;22;20071;-85
2023/09/01 04:02:00;;;;;;;13.20;7.25;;;;;;;;;;6318935;22;20297;-84
2023/09/01 04:04:36;;;;;;;12.82;6.75;;;;;;;;;;6293113;22;20076;-85
2023/09/01 04:07:06;;;;;;;9.00;6.22;;;;;;;;;;6301217;22;20062;-85
2023/09/01 04:09:43;;;;;;;12.57;6.82;;;;;;;;;;6299254;22;20034;-86
2023/09/01 04:12:21;;;;;;;9.30;6.43;;;;;;;;;;6322169;22;20037;-86
2023/09/01 04:14:49;;;;;;;10.18;6.22;;;;;;;;;;6300702;22;20020;-86
2023/09/01 04:17:21;;;;;;;12.93;6.63;;;;;;;;;;6304536;22;20404;-85
2023/09/01 04:19:56;;;;;;;15.23;7.00;;;;;;;;;;6329082;22;20023;-85
2023/09/01 04:22:26;;;;;;;12.73;6.53;;;;;;;;;;6329386;22;20027;-87
2023/09/01 04:24:59;;;;;;;12.20;6.38;;;;;;;;;;6303519;22;20017;-86
2023/09/01 04:27:54;;;;;;;10.73;6.85;;;;;;;;;;6302969;22;20035;-85
2023/09/01 04:30:29;;;;;;;10.32;6.95;;;;;;;;;;6278658;22;20100;-87
2023/09/01 04:33:06;;;;;;;11.50;6.85;;;;;;;;;;6304636;22;20011;-87
2023/09/01 04:35:38;;;;;;;11.05;6.38;;;;;;;;;;6302171;22;20038;-86
2023/09/01 04:38:06;;;;;;;13.57;7.43;;;;;;;;;;6326272;22;20134;-87
2023/09/01 04:40:34;;;;;;;20.08;8.65;;;;;;;;;;6298507;22;20033;-87
2023/09/01 04:43:04;;;;;;;12.05;7.35;;;;;;;;;;6300319;22;20086;-87
2023/09/01 04:45:45;;;;;;;12.32;8.43;;;;;;;;;;6326194;22;20047;-87
2023/09/01 04:48:14;;;;;;;9.23;6.97;;;;;;;;;;6295292;22;20011;-88
2023/09/01 04:50:46;;;;;;;14.57;8.50;;;;;;;;;;6320144;22;20023;-87
2023/09/01 04:53:18;;;;;;;13.68;8.55;;;;;;;;;;6321188;22;20023;-87
2023/09/01 04:55:54;;;;;;;11.73;7.85;;;;;;;;;;6293279;22;20020;-88
2023/09/01 04:58:43;;;;;;;15.15;9.40;;;;;;;;;;6321082;22;20019;-88
2023/09/01 05:01:11;;;;;;;16.95;10.02;;;;;;;;;;6294177;22;20026;-88
2023/09/01 05:03:52;;;;;;;18.70;10.55;;;;;;;;;;6311942;22;20042;-87
2023/09/01 05:06:26;;;;;;;19.75;10.45;;;;;;;;;;6290023;22;20017;-87
2023/09/01 05:09:04;;;;;;;16.42;10.75;;;;;;;;;;6296191;22;20054;-87
2023/09/01 05:11:35;;;;;;;16.08;10.90;;;;;;;;;;6315924;22;20035;-87
2023/09/01 05:14:06;;;;;;;16.55;11.27;;;;;;;;;;6291800;22;20230;-88
2023/09/01 05:17:04;;;;;;;;;;;;;;;;;;;;;
2023/09/01 05:19:53;;;;;;;18.85;12.52;;;;;;;;;;6226289;22;20044;-87
2023/09/01 05:23:04;;;;;;;21.83;12.73;;;;;;;;;;6295575;22;20011;-87
2023/09/01 05:25:50;;;;;;;18.30;11.90;;;;;;;;;;6293016;22;20026;-88
2023/09/01 05:28:22;;;;;;;16.85;10.32;;;;;;;;;;6291746;22;20031;-86
2023/09/01 05:30:53;;;;;;;14.77;9.63;;;;;;;;;;6290193;22;20161;-87
2023/09/01 05:33:26;;;;;;;13.02;8.82;;;;;;;;;;6288261;22;20023;-87
2023/09/01 05:35:54;;;;;;;20.98;9.02;;;;;;;;;;6313201;22;20409;-87
2023/09/01 05:38:27;;;;;;;10.23;7.50;;;;;;;;;;6313532;22;20023;-87
2023/09/01 05:41:10;;;;;;;12.07;7.30;;;;;;;;;;6278459;22;20316;-87
2023/09/01 05:47:07;;;;;;;17.80;9.77;;;;;;;;;;6316264;22;20018;-87
2023/09/01 05:49:42;;;;;;;13.68;10.10;;;;;;;;;;6284262;22;20023;-87
2023/09/01 05:52:13;;;;;;;19.17;10.18;;;;;;;;;;6260320;22;20007;-87
2023/09/01 05:54:44;;;;;;;18.52;11.50;;;;;;;;;;6282743;22;20377;-86
2023/09/01 05:57:17;;;;;;;14.40;9.63;;;;;;;;;;6280388;22;20026;-87
2023/09/01 05:59:58;;;;;;;15.48;9.70;;;;;;;;;;6288824;22;20027;-87
2023/09/01 06:03:05;;;;;;;10.70;7.25;;;;;;;;;;5131179;27;20513;-88
2023/09/01 06:06:06;;;;;;;14.18;7.90;;;;;;;;;;5109451;28;20051;-86
2023/09/01 06:08:37;;;;;;;7.95;6.05;;;;;;;;;;5109271;28;20485;-86
2023/09/01 06:11:09;;;;;;;14.13;6.22;;;;;;;;;;5113015;28;20062;-86
2023/09/01 06:13:39;;;;;;;7.38;5.10;;;;;;;;;;5114182;28;20423;-86
2023/09/01 06:16:19;;;;;;;10.40;5.53;;;;;;;;;;5118461;28;20059;-87
2023/09/01 06:24:28;;;;;;;8.38;4.47;;;;;;;;;;5124918;22;20070;-87
2023/09/01 06:27:20;;;;;;;6.13;4.25;;;;;;;;;;5167216;22;20048;-88
2023/09/01 06:30:32;;;;;;;11.30;3.97;;;;;;;;;;5107094;28;20040;-88
2023/09/01 06:33:19;;;;;;;9.50;4.40;;;;;;;;;;5124911;28;20032;-87
2023/09/01 06:36:12;;;;;;;6.20;3.45;;;;;;;;;;5101430;28;20058;-86
2023/09/01 06:39:11;;;;;;;9.68;3.70;;;;;;;;;;5127937;28;20051;-87
2023/09/01 06:42:08;;;;;;;7.03;3.60;;;;;;;;;;5117248;28;20031;-87
2023/09/01 06:44:46;;;;;;;5.15;3.15;;;;;;;;;;5127395;28;20079;-88
2023/09/01 06:47:49;;;;;;;6.28;3.50;;;;;;;;;;5124836;27;20056;-87
2023/09/01 06:50:32;;;;;;;5.97;2.92;;;;;;;;;;5107619;28;20052;-88
2023/09/01 06:56:45;;;;;;;6.13;2.95;;;;;;;;;;5127453;27;20030;-87
2023/09/01 06:59:35;;;;;;;8.05;3.22;;;;;;;;;;5124065;28;20107;-85
2023/09/01 07:06:00;;;;;;;5.55;2.35;;;;;;;;;;5112510;27;20413;-88
2023/09/01 07:12:09;;;;;;;4.50;2.53;;;;;;;;;;5123452;28;20325;-86
2023/09/01 07:15:31;;;;;;;;;;;;;;;;;;;;;
2023/09/01 07:21:42;;;;;;;3.67;2.03;;;;;;;;;;5108233;28;20030;-87
2023/09/01 07:24:21;;;;;;;9.20;2.80;;;;;;;;;;5110006;28;20044;-88
2023/09/01 07:27:10;;;;;;;5.30;1.88;;;;;;;;;;5109888;28;20040;-87
2023/09/01 07:29:52;;;;;;;;;;;;;;;;;;;;;
2023/09/01 07:32:40;;;;;;;4.90;1.95;;;;;;;;;;5070783;28;20045;-88
2023/09/01 07:39:08;;;;;;;6.20;2.03;;;;;;;;;;5092893;28;20097;-88
2023/09/01 07:42:08;;;;;;;3.42;2.05;;;;;;;;;;5092560;28;20047;-88
2023/09/01 07:44:49;;;;;;;3.97;1.80;;;;;;;;;;5105655;28;20044;-87
2023/09/01 07:54:25;;;;;;;3.75;1.40;;;;;;;;;;5048799;28;20071;-88
2023/09/01 07:59:48;;;;;;;3.28;1.42;;;;;;;;;;4471821;22;20089;-87
2023/09/01 08:02:30;;;;;;;3.53;1.70;;;;;;;;;;5051633;28;20145;-87
2023/09/01 08:11:23;;;;;;;6.45;1.67;;;;;;;;;;5162696;22;20079;-88
2023/09/01 08:14:03;;;;;;;4.18;2.30;;;;;;;;;;5073504;28;20377;-87
2023/09/01 08:20:18;;;;;;;2.58;1.35;;;;;;;;;;5088460;28;20043;-88
2023/09/01 08:26:50;;;;;;;;;;;;;;;;;;;;;
2023/09/01 08:29:57;;;;;;;0.00;0.00;;;;;;;;;;5315799;22;20107;-87
2023/09/01 08:32:54;;;;;;;0.00;0.00;;;;;;;;;;5069907;28;20033;-88
2023/09/01 08:39:07;;;;;;;0.00;0.00;;;;;;;;;;5067861;28;20047;-88
2023/09/01 08:41:54;;;;;;;0.00;0.00;;;;;;;;;;5048186;28;20045;-90
2023/09/01 08:45:10;;;;;;;0.00;0.00;;;;;;;;;;5055377;28;20096;-88
2023/09/01 08:48:13;;;;;;;;;;;;;;;;;;;;;
2023/09/01 08:50:56;;;;;;;0.05;0.05;;;;;;;;;;5064936;28;20052;-89
2023/09/01 08:53:44;;;;;;;0.00;0.00;;;;;;;;;;5083603;28;20059;-89
2023/09/01 08:56:30;;;;;;;4.13;2.45;;;;;;;;;;5072946;28;20128;-89
2023/09/01 08:59:37;;;;;;;0.00;0.00;;;;;;;;;;5074304;28;20076;-88
2023/09/01 09:02:20;;;;;;;0.00;0.00;;;;;;;;;;5060685;28;20058;-89
2023/09/01 09:05:13;;;;;;;0.28;0.28;;;;;;;;;;5109193;28;20048;-88
2023/09/01 09:08:32;;;;;;;0.00;0.00;;;;;;;;;;5095710;28;20083;-89
2023/09/01 09:11:27;;;;;;;0.00;0.00;;;;;;;;;;5102040;28;20135;-88
2023/09/01 09:14:33;;;;;;;0.00;0.00;;;;;;;;;;5105273;28;20103;-89
2023/09/01 09:17:43;;;;;;;0.00;0.00;;;;;;;;;;5111719;28;20040;-90
2023/09/01 09:43:00;;;;;;;0.00;0.00;;;;;;;;;;1191457;26;20047;-89
2023/09/01 10:20:17;;;;;;;1.35;0.30;;;;;;;;;;5355722;23;20048;-89
2023/09/01 10:23:01;;;;;;;0.00;0.00;;;;;;;;;;4942676;28;20050;-90
2023/09/01 10:28:44;;;;;;;0.00;0.00;;;;;;;;;;4984780;23;20062;-88
2023/09/01 10:31:35;;;;;;;0.00;0.00;;;;;;;;;;4938492;29;20078;-91
2023/09/01 10:34:42;;;;;;;0.00;0.00;;;;;;;;;;4948740;28;20043;-90
2023/09/01 10:37:32;;;;;;;0.00;0.00;;;;;;;;;;4953576;28;20040;-88
2023/09/01 10:40:38;;;;;;;0.00;0.00;;;;;;;;;;4913373;29;20123;-89
2023/09/01 10:49:36;;;;;;;;;;;;;;;;;;;;;
2023/09/01 10:57:49;;;;;;;0.30;0.30;;;;;;;;;;5069322;23;20051;-90
2023/09/01 11:03:45;;;;;;;0.00;0.00;;;;;;;;;;5167511;23;20047;-89
2023/09/01 11:42:50;;;;;;;0.00;0.00;;;;;;;;;;4942788;23;20566;-90
2023/09/01 14:02:24;;;;;;;0.10;0.10;;;;;;;;;;4979756;28;20046;-87
2023/09/01 14:05:27;;;;;;;;;;;;;;;;;;;;;
2023/09/01 14:08:11;;;;;;;0.00;0.00;;;;;;;;;;4980054;28;20047;-87
2023/09/01 14:11:06;;;;;;;0.10;0.10;;;;;;;;;;4964699;28;20047;-88
2023/09/01 14:13:50;;;;;;;0.00;0.00;;;;;;;;;;4965474;28;20301;-87
2023/09/01 14:16:20;;;;;;;0.00;0.00;;;;;;;;;;4963273;28;20071;-87
2023/09/01 14:18:59;;;;;;;0.00;0.00;;;;;;;;;;4980422;28;20058;-86
2023/09/01 14:21:38;;;;;;;0.00;0.00;;;;;;;;;;4967998;28;20183;-87
2023/09/01 14:24:14;;;;;;;0.00;0.00;;;;;;;;;;4987984;28;20122;-88
2023/09/01 14:26:55;;;;;;;0.00;0.00;;;;;;;;;;4960588;28;20093;-87
2023/09/01 14:29:25;;;;;;;0.05;0.05;;;;;;;;;;4964406;28;20050;-88
2023/09/01 14:32:00;;;;;;;0.00;0.00;;;;;;;;;;4982032;28;20053;-86
2023/09/01 14:34:39;;;;;;;0.00;0.00;;;;;;;;;;4967269;28;20220;-86
2023/09/01 14:37:08;;;;;;;0.00;0.00;;;;;;;;;;4964799;28;20106;-87
2023/09/01 14:39:39;;;;;;;0.00;0.00;;;;;;;;;;4966216;28;20069;-87
2023/09/01 14:42:12;;;;;;;0.00;0.00;;;;;;;;;;4963997;28;20061;-87
2023/09/01 14:44:49;;;;;;;0.00;0.00;;;;;;;;;;4963521;28;20113;-87
2023/09/01 14:47:29;;;;;;;0.10;0.10;;;;;;;;;;4962843;28;20407;-88
2023/09/01 14:50:06;;;;;;;0.00;0.00;;;;;;;;;;4961202;28;20066;-87
2023/09/01 14:52:51;;;;;;;0.00;0.00;;;;;;;;;;4977357;28;20058;-87
2023/09/01 14:55:32;;;;;;;0.00;0.00;;;;;;;;;;4961214;28;20241;-87
2023/09/01 14:58:13;;;;;;;0.10;0.10;;;;;;;;;;4961771;28;20074;-87
2023/09/01 15:00:47;;;;;;;0.00;0.00;;;;;;;;;;4965693;28;20051;-87
2023/09/01 15:03:24;;;;;;;0.00;0.00;;;;;;;;;;4957321;28;20173;-87
2023/09/01 15:06:02;;;;;;;0.00;0.00;;;;;;;;;;4958907;28;20070;-87
2023/09/01 15:08:50;;;;;;;0.00;0.00;;;;;;;;;;4958668;28;20111;-87
2023/09/01 15:11:31;;;;;;;0.00;0.00;;;;;;;;;;4957526;28;20047;-86
2023/09/01 15:14:14;;;;;;;0.00;0.00;;;;;;;;;;4959777;28;20085;-87
2023/09/01 15:16:53;;;;;;;0.00;0.00;;;;;;;;;;4959096;28;20155;-87
2023/09/01 15:19:30;;;;;;;0.00;0.00;;;;;;;;;;4962222;28;20144;-89
2023/09/01 15:22:20;;;;;;;0.00;0.00;;;;;;;;;;4978231;28;20039;-90
2023/09/01 15:24:53;;;;;;;0.00;0.00;;;;;;;;;;4976065;28;20067;-90
2023/09/01 15:27:36;;;;;;;1.20;1.10;;;;;;;;;;4980184;28;20177;-89
2023/09/01 15:30:11;;;;;;;0.00;0.00;;;;;;;;;;4965705;28;20126;-89
2023/09/01 15:32:49;;;;;;;0.00;0.00;;;;;;;;;;4967793;28;20054;-90
2023/09/01 15:35:21;;;;;;;;;;;;;;;;;;4968077;28;20078;-89
2023/09/01 15:38:27;;;;;;;0.00;0.00;;;;;;;;;;4986552;28;19922;-90
2023/09/01 15:43:35;;;;;;;0.00;0.00;;;;;;;;;;5429411;23;20055;-90
2023/09/01 15:46:08;;;;;;;0.00;0.00;;;;;;;;;;4946848;29;20174;-89
2023/09/01 15:48:44;;;;;;;0.10;0.10;;;;;;;;;;4943330;29;20670;-90
2023/09/01 15:55:09;;;;;;;0.00;0.00;;;;;;;;;;4958862;29;20067;-90
2023/09/01 15:57:52;;;;;;;0.10;0.10;;;;;;;;;;4957453;29;20055;-90
2023/09/01 16:00:21;;;;;;;0.00;0.00;;;;;;;;;;4959586;29;20051;-90
2023/09/01 16:03:12;;;;;;;0.00;0.00;;;;;;;;;;4942666;29;20047;-90
2023/09/01 16:06:01;;;;;;;0.05;0.05;;;;;;;;;;4931469;28;20047;-90
2023/09/01 16:08:36;;;;;;;0.00;0.00;;;;;;;;;;4949313;29;20100;-91
2023/09/01 16:11:36;;;;;;;0.00;0.00;;;;;;;;;;4954666;28;20055;-91
2023/09/01 16:14:11;;;;;;;0.00;0.00;;;;;;;;;;4951666;29;20082;-91
2023/09/01 16:17:24;;;;;;;0.00;0.00;;;;;;;;;;4969286;28;20064;-90
2023/09/01 16:20:12;;;;;;;0.00;0.00;;;;;;;;;;4947863;29;20043;-90
2023/09/01 16:22:43;;;;;;;0.00;0.00;;;;;;;;;;4948090;29;20156;-90
2023/09/01 16:25:22;;;;;;;0.00;0.00;;;;;;;;;;4963961;29;20141;-89
2023/09/01 16:28:22;;;;;;;0.00;0.00;;;;;;;;;;4949024;29;20122;-89
2023/09/01 16:31:11;;;;;;;0.00;0.00;;;;;;;;;;4946113;29;20031;-90
2023/09/01 16:34:08;;;;;;;0.00;0.00;;;;;;;;;;4931882;29;20115;-91
2023/09/01 16:36:49;;;;;;;0.00;0.00;;;;;;;;;;4946250;28;20063;-89
2023/09/01 16:39:23;;;;;;;0.00;0.00;;;;;;;;;;4932920;29;20287;-90
2023/09/01 16:42:01;;;;;;;0.00;0.00;;;;;;;;;;4932465;28;20079;-90
2023/09/01 16:44:42;;;;;;;0.00;0.00;;;;;;;;;;4950414;28;20067;-90
2023/09/01 16:47:14;;;;;;;0.00;0.00;;;;;;;;;;4947434;29;20115;-90
2023/09/01 16:49:43;;;;;;;0.00;0.00;;;;;;;;;;4948002;29;20039;-89
2023/09/01 16:52:26;;;;;;;0.10;0.10;;;;;;;;;;4949646;29;20173;-90
2023/09/01 16:54:54;;;;;;;;;;;;;;;;;;4946952;29;20078;-89
2023/09/01 16:57:29;;;;;;;0.00;0.00;;;;;;;;;;4962976;29;19922;-90
2023/09/01 17:00:09;;;;;;;0.00;0.00;;;;;;;;;;4946512;29;20206;-90
2023/09/01 17:02:53;;;;;;;0.00;0.00;;;;;;;;;;4964583;28;20051;-89
2023/09/01 17:05:38;;;;;;;0.10;0.10;;;;;;;;;;4947054;29;20051;-90
2023/09/01 17:08:09;;;;;;;0.00;0.00;;;;;;;;;;4942394;29;20051;-91
2023/09/01 17:10:42;;;;;;;0.00;0.00;;;;;;;;;;4942809;29;20123;-91
2023/09/01 17:13:11;;;;;;;0.08;0.08;;;;;;;;;;4960349;29;20062;-90
2023/09/01 17:16:04;;;;;;;0.00;0.00;;;;;;;;;;4940605;29;20380;-89
2023/09/01 17:18:45;;;;;;;0.00;0.00;;;;;;;;;;4955546;29;20055;-90
2023/09/01 17:21:25;;;;;;;0.00;0.00;;;;;;;;;;4940493;29;20059;-90
2023/09/01 17:24:11;;;;;;;0.10;0.10;;;;;;;;;;4941641;29;20055;-89
2023/09/01 17:27:18;;;;;;;0.03;0.03;;;;;;;;;;4953764;29;20305;-89
2023/09/01 17:30:00;;;;;;;0.10;0.10;;;;;;;;;;4938658;29;20594;-89
2023/09/01 17:32:45;;;;;;;0.00;0.00;;;;;;;;;;4947451;29;20047;-90
2023/09/01 17:35:24;;;;;;;0.00;0.00;;;;;;;;;;4945133;29;20055;-90
2023/09/01 17:38:15;;;;;;;0.00;0.00;;;;;;;;;;4954271;29;20047;-90
2023/09/01 17:41:01;;;;;;;0.00;0.00;;;;;;;;;;4955718;29;20624;-90
2023/09/01 17:43:40;;;;;;;0.10;0.10;;;;;;;;;;4954515;29;20090;-90
2023/09/01 17:46:15;;;;;;;0.00;0.00;;;;;;;;;;4940539;29;20070;-90
2023/09/01 17:48:58;;;;;;;0.10;0.10;;;;;;;;;;4954263;29;20055;-87
2023/09/01 17:51:53;;;;;;;0.03;0.03;;;;;;;;;;4938919;29;20069;-87
2023/09/01 17:54:49;;;;;;;0.00;0.00;;;;;;;;;;4944559;28;20058;-88
2023/09/01 17:57:40;;;;;;;0.10;0.10;;;;;;;;;;4940491;29;20063;-87
2023/09/01 18:00:29;;;;;;;0.00;0.00;;;;;;;;;;4954050;29;20039;-87
2023/09/01 18:03:13;;;;;;;0.08;0.08;;;;;;;;;;4939630;29;20448;-88
2023/09/01 18:06:06;;;;;;;0.00;0.00;;;;;;;;;;4937447;29;20070;-87
2023/09/01 18:08:48;;;;;;;0.00;0.00;;;;;;;;;;4936216;29;20059;-87
2023/09/01 18:11:35;;;;;;;0.10;0.10;;;;;;;;;;4937652;29;20047;-87
2023/09/01 18:14:24;;;;;;;0.00;0.00;;;;;;;;;;4944129;29;20051;-87
2023/09/01 18:17:13;;;;;;;0.00;0.00;;;;;;;;;;4946184;29;20114;-87
2023/09/01 18:20:26;;;;;;;0.00;0.00;;;;;;;;;;4962445;29;20043;-88
2023/09/01 18:23:30;;;;;;;0.10;0.10;;;;;;;;;;4961511;29;20134;-88
2023/09/01 18:26:19;;;;;;;0.03;0.03;;;;;;;;;;4958480;29;20047;-88
2023/09/01 18:29:22;;;;;;;;;;;;;;;;;;;;;
2023/09/01 18:31:56;;;;;;;;;;;;;;;;;;4965946;29;20055;-88
2023/09/01 18:34:44;;;;;;;0.10;0.10;;;;;;;;;;4953012;28;19926;-88
2023/09/01 18:37:44;;;;;;;0.10;0.10;;;;;;;;;;4965034;29;20059;-88
2023/09/01 18:40:55;;;;;;;2.22;1.23;;;;;;;;;;4951523;29;20115;-89
2023/09/01 18:46:54;;;;;;;0.10;0.10;;;;;;;;;;4957586;29;20094;-88
2023/09/01 18:49:37;;;;;;;0.10;0.10;;;;;;;;;;4953473;29;20098;-89
2023/09/01 18:52:37;;;;;;;;;;;;;;;;;;;;;
2023/09/01 18:55:22;;;;;;;7.40;3.28;;;;;;;;;;4957181;29;20079;-88
2023/09/01 18:58:18;;;;;;;0.10;0.10;;;;;;;;;;4950136;29;20043;-89
2023/09/01 19:01:03;;;;;;;0.10;0.10;;;;;;;;;;4945818;29;20043;-87
2023/09/01 19:04:17;;;;;;;7.60;3.38;;;;;;;;;;4948192;29;20347;-88
2023/09/01 19:07:02;;;;;;;;;;;;;;;;;;4930176;29;20047;-87
2023/09/01 19:10:12;;;;;;;0.05;0.05;;;;;;;;;;4963074;28;19961;-87
2023/09/01 19:13:05;;;;;;;0.10;0.10;;;;;;;;;;4956826;29;20431;-87
2023/09/01 19:16:02;;;;;;;0.00;0.00;;;;;;;;;;4949451;29;20079;-87
2023/09/01 19:18:52;;;;;;;0.00;0.00;;;;;;;;;;4943661;29;20047;-87
2023/09/01 19:25:01;;;;;;;0.10;0.10;;;;;;;;;;4923395;29;20054;-87
2023/09/01 19:27:49;;;;;;;0.10;0.10;;;;;;;;;;4908293;29;20056;-88
2023/09/01 19:30:42;;;;;;;0.00;0.00;;;;;;;;;;4928776;29;20099;-88
2023/09/01 19:33:25;;;;;;;;;;;;;;;;;;4905060;29;20062;-87
2023/09/01 19:36:19;;;;;;;0.10;0.10;;;;;;;;;;4914704;29;19919;-85
2023/09/01 19:39:10;;;;;;;0.10;0.10;;;;;;;;;;4904860;29;20052;-87
2023/09/01 19:42:01;;;;;;;0.10;0.10;;;;;;;;;;4908108;29;20273;-88
2023/09/01 19:48:39;;;;;;;0.00;0.00;;;;;;;;;;5272353;23;20426;-86
2023/09/01 19:51:34;;;;;;;2.00;0.57;;;;;;;;;;4976752;28;20046;-87
2023/09/01 19:58:00;;;;;;;0.10;0.10;;;;;;;;;;4979472;28;20022;-86
2023/09/01 20:00:55;;;;;;;0.10;0.10;;;;;;;;;;4952079;28;20066;-86
2023/09/01 20:04:15;;;;;;;0.10;0.10;;;;;;;;;;4969828;28;20058;-87
2023/09/01 20:10:32;;;;;;;0.10;0.10;;;;;;;;;;4973813;28;20058;-87
2023/09/01 20:13:43;;;;;;;0.10;0.10;;;;;;;;;;4973217;28;20043;-88
2023/09/01 20:16:39;;;;;;;0.10;0.10;;;;;;;;;;4959832;28;20057;-89
2023/09/01 20:19:46;;;;;;;0.10;0.10;;;;;;;;;;4979278;28;20117;-89
2023/09/01 20:22:36;;;;;;;9.05;3.55;;;;;;;;;;4928887;28;20054;-89
2023/09/01 20:25:26;;;;;;;6.15;3.45;;;;;;;;;;4964209;28;20078;-89
2023/09/01 20:28:28;;;;;;;11.35;5.57;;;;;;;;;;4962570;28;20043;-90
2023/09/01 20:31:44;;;;;;;13.27;4.78;;;;;;;;;;4966300;28;20207;-90
2023/09/01 20:35:00;;;;;;;9.60;4.30;;;;;;;;;;4945620;28;20050;-90
2023/09/01 20:37:57;;;;;;;8.32;4.15;;;;;;;;;;4982145;28;20070;-90
2023/09/01 20:41:15;;;;;;;7.90;4.88;;;;;;;;;;4970003;28;20109;-89
2023/09/01 20:43:55;;;;;;;10.90;5.38;;;;;;;;;;4967634;28;20217;-89
2023/09/01 20:46:29;;;;;;;9.90;4.43;;;;;;;;;;4968684;28;20051;-90
2023/09/01 20:49:11;;;;;;;7.72;4.95;;;;;;;;;;4968795;28;20054;-89
2023/09/01 20:52:18;;;;;;;12.10;6.03;;;;;;;;;;4968618;28;20062;-88
2023/09/01 20:55:11;;;;;;;13.93;5.18;;;;;;;;;;4972627;28;20034;-89
2023/09/01 20:58:02;;;;;;;9.23;4.20;;;;;;;;;;4974557;28;20115;-90
2023/09/01 21:00:53;;;;;;;7.80;5.40;;;;;;;;;;4969998;28;20062;-90
2023/09/01 21:03:34;;;;;;;13.38;5.65;;;;;;;;;;4987919;28;20046;-89
2023/09/01 21:06:19;;;;;;;9.90;6.88;;;;;;;;;;4977993;28;20047;-89
2023/09/01 21:09:00;;;;;;;9.10;6.45;;;;;;;;;;4971259;28;20074;-89
2023/09/01 21:11:44;;;;;;;11.10;6.65;;;;;;;;;;4972821;28;20057;-88
2023/09/01 21:14:25;;;;;;;10.77;6.18;;;;;;;;;;4972607;28;20050;-89
2023/09/01 21:17:08;;;;;;;;;;;;;;;;;;;;;
2023/09/01 21:19:53;;;;;;;12.05;6.45;;;;;;;;;;4987404;28;20050;-87
2023/09/01 21:22:34;;;;;;;12.55;7.25;;;;;;;;;;4970822;28;20046;-87
2023/09/01 21:25:33;;;;;;;13.52;8.30;;;;;;;;;;4971612;28;20179;-86
2023/09/01 21:31:24;;;;;;;15.30;9.35;;;;;;;;;;4987308;28;20225;-88
2023/09/01 21:33:55;;;;;;;17.63;10.13;;;;;;;;;;4971405;28;20105;-86
2023/09/01 21:36:40;;;;;;;16.83;9.07;;;;;;;;;;4971098;28;20057;-86
2023/09/01 21:39:14;;;;;;;11.75;7.15;;;;;;;;;;4967371;28;20078;-86
2023/09/01 21:41:42;;;;;;;10.45;7.15;;;;;;;;;;4966650;28;20053;-86
2023/09/01 21:44:23;;;;;;;15.18;9.15;;;;;;;;;;4968768;28;20097;-86
2023/09/01 21:47:14;;;;;;;14.52;9.32;;;;;;;;;;4967199;28;20046;-87
2023/09/01 21:49:52;;;;;;;15.60;9.18;;;;;;;;;;4970275;28;20102;-86
2023/09/01 21:56:01;;;;;;;14.77;9.02;;;;;;;;;;4983769;28;20038;-87
2023/09/01 21:58:44;;;;;;;;;;;;;;;;;;;;;